Wrightsville, Ohio
Current Conditions -  °F | °C
As of 9:55 AM on Saturday 20 Dec 2014 (Local Time) from KFGX Reporting Station
Light Snow Light Snow  
Wind Chill: 28°   Ceiling: 4500
Heat Index: 28°   Visibility: 2.5mi
Dew Point: 26°   Wind: 3mph
Humidity: 92%   Direction: 30°NNE
Pressure: 30.29"   Gusts: NA
Location:  38.7042°N, 83.6081°W
Report Text: KFGX 201455Z AUTO 03003KT 2 1/2SM -SN SCT007 SCT037 OVC045 M02/M03 A3029 RMK AO2 T10231034
Loading
Personal Weather Stations






























Interactive Weather Map New forecast layout! Learn more

10-Day Weather Forecast

Advertisements
Track Severe Weather on mobile